sensor_id;sensor_type;location;lat;lon;timestamp;temperature;humidity
17215;DHT22;8723;51.502;6.918;2023-10-31T00:01:31;12.70;99.90
17215;DHT22;8723;51.502;6.918;2023-10-31T00:03:59;12.70;99.90
17215;DHT22;8723;51.502;6.918;2023-10-31T00:06:27;12.60;99.90
17215;DHT22;8723;51.502;6.918;2023-10-31T00:08:56;12.40;99.90
17215;DHT22;8723;51.502;6.918;2023-10-31T00:11:23;12.30;99.90
17215;DHT22;8723;51.502;6.918;2023-10-31T00:13:50;12.30;99.90
17215;DHT22;8723;51.502;6.918;2023-10-31T00:16:17;12.20;99.90
17215;DHT22;8723;51.502;6.918;2023-10-31T00:18:43;12.10;99.90
17215;DHT22;8723;51.502;6.918;2023-10-31T00:21:12;12.00;99.90
17215;DHT22;8723;51.502;6.918;2023-10-31T00:23:43;12.00;99.90
17215;DHT22;8723;51.502;6.918;2023-10-31T00:26:10;11.90;99.90
17215;DHT22;8723;51.502;6.918;2023-10-31T00:28:37;11.90;99.90
17215;DHT22;8723;51.502;6.918;2023-10-31T00:31:04;11.80;99.90
17215;DHT22;8723;51.502;6.918;2023-10-31T00:33:32;11.80;99.90
17215;DHT22;8723;51.502;6.918;2023-10-31T00:35:59;11.80;99.90
17215;DHT22;8723;51.502;6.918;2023-10-31T00:38:27;11.80;99.90
17215;DHT22;8723;51.502;6.918;2023-10-31T00:40:54;11.80;99.90
17215;DHT22;8723;51.502;6.918;2023-10-31T00:43:21;11.80;99.90
17215;DHT22;8723;51.502;6.918;2023-10-31T00:45:47;11.70;99.90
17215;DHT22;8723;51.502;6.918;2023-10-31T00:48:14;11.70;99.90
17215;DHT22;8723;51.502;6.918;2023-10-31T00:50:41;11.60;99.90
17215;DHT22;8723;51.502;6.918;2023-10-31T00:53:08;11.60;99.90
17215;DHT22;8723;51.502;6.918;2023-10-31T00:55:36;11.60;99.90
17215;DHT22;8723;51.502;6.918;2023-10-31T00:58:03;11.60;99.90
17215;DHT22;8723;51.502;6.918;2023-10-31T01:00:29;11.60;99.90
17215;DHT22;8723;51.502;6.918;2023-10-31T01:02:57;11.50;99.90
17215;DHT22;8723;51.502;6.918;2023-10-31T01:05:24;11.50;99.90
17215;DHT22;8723;51.502;6.918;2023-10-31T01:07:52;11.50;99.90
17215;DHT22;8723;51.502;6.918;2023-10-31T01:10:19;11.30;99.90
17215;DHT22;8723;51.502;6.918;2023-10-31T01:12:47;11.40;99.90
17215;DHT22;8723;51.502;6.918;2023-10-31T01:15:14;11.40;99.90
17215;DHT22;8723;51.502;6.918;2023-10-31T01:17:40;11.40;99.90
17215;DHT22;8723;51.502;6.918;2023-10-31T01:20:08;11.30;99.90
17215;DHT22;8723;51.502;6.918;2023-10-31T01:22:35;11.30;99.90
17215;DHT22;8723;51.502;6.918;2023-10-31T01:25:02;11.20;99.90
17215;DHT22;8723;51.502;6.918;2023-10-31T01:27:29;11.20;99.90
17215;DHT22;8723;51.502;6.918;2023-10-31T01:29:57;11.20;99.90
17215;DHT22;8723;51.502;6.918;2023-10-31T01:32:24;11.30;99.90
17215;DHT22;8723;51.502;6.918;2023-10-31T01:34:51;11.30;99.90
17215;DHT22;8723;51.502;6.918;2023-10-31T01:37:18;11.30;99.90
17215;DHT22;8723;51.502;6.918;2023-10-31T01:39:46;11.30;99.90
17215;DHT22;8723;51.502;6.918;2023-10-31T01:42:14;11.30;99.90
17215;DHT22;8723;51.502;6.918;2023-10-31T01:44:41;11.30;99.90
17215;DHT22;8723;51.502;6.918;2023-10-31T01:47:09;11.40;99.90
17215;DHT22;8723;51.502;6.918;2023-10-31T01:49:36;11.30;99.90
17215;DHT22;8723;51.502;6.918;2023-10-31T01:52:04;11.40;99.90
17215;DHT22;8723;51.502;6.918;2023-10-31T01:54:32;11.40;99.90
17215;DHT22;8723;51.502;6.918;2023-10-31T01:57:00;11.40;99.90
17215;DHT22;8723;51.502;6.918;2023-10-31T01:59:27;11.40;99.90
17215;DHT22;8723;51.502;6.918;2023-10-31T02:01:55;11.40;99.90
17215;DHT22;8723;51.502;6.918;2023-10-31T02:04:25;11.40;99.90
17215;DHT22;8723;51.502;6.918;2023-10-31T02:06:51;11.40;99.90
17215;DHT22;8723;51.502;6.918;2023-10-31T02:09:18;11.40;99.90
17215;DHT22;8723;51.502;6.918;2023-10-31T02:11:45;11.40;99.90
17215;DHT22;8723;51.502;6.918;2023-10-31T02:14:12;11.40;99.90
17215;DHT22;8723;51.502;6.918;2023-10-31T02:16:39;11.40;99.90
17215;DHT22;8723;51.502;6.918;2023-10-31T02:19:06;11.40;99.90
17215;DHT22;8723;51.502;6.918;2023-10-31T02:21:38;11.40;99.90
17215;DHT22;8723;51.502;6.918;2023-10-31T02:24:06;11.40;99.90
17215;DHT22;8723;51.502;6.918;2023-10-31T02:26:34;11.40;99.90
17215;DHT22;8723;51.502;6.918;2023-10-31T02:29:01;11.40;99.90
17215;DHT22;8723;51.502;6.918;2023-10-31T02:31:28;11.40;99.90
17215;DHT22;8723;51.502;6.918;2023-10-31T02:33:55;11.40;99.90
17215;DHT22;8723;51.502;6.918;2023-10-31T02:36:23;11.40;99.90
17215;DHT22;8723;51.502;6.918;2023-10-31T02:38:51;11.30;99.90
17215;DHT22;8723;51.502;6.918;2023-10-31T02:41:19;11.20;99.90
17215;DHT22;8723;51.502;6.918;2023-10-31T02:43:49;11.30;99.90
17215;DHT22;8723;51.502;6.918;2023-10-31T02:46:19;11.20;99.90
17215;DHT22;8723;51.502;6.918;2023-10-31T02:48:48;11.20;99.90
17215;DHT22;8723;51.502;6.918;2023-10-31T02:51:18;11.10;99.90
17215;DHT22;8723;51.502;6.918;2023-10-31T02:53:47;11.10;99.90
17215;DHT22;8723;51.502;6.918;2023-10-31T02:56:20;11.10;99.90
17215;DHT22;8723;51.502;6.918;2023-10-31T02:58:50;11.10;99.90
17215;DHT22;8723;51.502;6.918;2023-10-31T03:01:20;11.10;99.90
17215;DHT22;8723;51.502;6.918;2023-10-31T03:03:48;11.10;99.90
17215;DHT22;8723;51.502;6.918;2023-10-31T03:06:17;11.10;99.90
17215;DHT22;8723;51.502;6.918;2023-10-31T03:08:47;11.10;99.90
17215;DHT22;8723;51.502;6.918;2023-10-31T03:11:23;11.10;99.90
17215;DHT22;8723;51.502;6.918;2023-10-31T03:13:52;11.10;99.90
17215;DHT22;8723;51.502;6.918;2023-10-31T03:16:23;11.10;99.90
17215;DHT22;8723;51.502;6.918;2023-10-31T03:18:53;11.10;99.90
17215;DHT22;8723;51.502;6.918;2023-10-31T03:21:23;11.10;99.90
17215;DHT22;8723;51.502;6.918;2023-10-31T03:23:53;11.10;99.90
17215;DHT22;8723;51.502;6.918;2023-10-31T03:26:22;11.10;99.90
17215;DHT22;8723;51.502;6.918;2023-10-31T03:28:49;11.10;99.90
17215;DHT22;8723;51.502;6.918;2023-10-31T03:31:18;11.20;99.90
17215;DHT22;8723;51.502;6.918;2023-10-31T03:33:48;11.10;99.90
17215;DHT22;8723;51.502;6.918;2023-10-31T03:36:17;11.20;99.90
17215;DHT22;8723;51.502;6.918;2023-10-31T03:38:44;11.20;99.90
17215;DHT22;8723;51.502;6.918;2023-10-31T03:41:11;11.20;99.90
17215;DHT22;8723;51.502;6.918;2023-10-31T03:43:40;11.10;99.90
17215;DHT22;8723;51.502;6.918;2023-10-31T03:46:06;11.20;99.90
17215;DHT22;8723;51.502;6.918;2023-10-31T03:48:33;11.20;99.90
17215;DHT22;8723;51.502;6.918;2023-10-31T03:51:00;11.20;99.90
17215;DHT22;8723;51.502;6.918;2023-10-31T03:53:27;11.10;99.90
17215;DHT22;8723;51.502;6.918;2023-10-31T03:55:54;11.20;99.90
17215;DHT22;8723;51.502;6.918;2023-10-31T03:58:20;11.20;99.90
17215;DHT22;8723;51.502;6.918;2023-10-31T04:00:51;11.20;99.90
17215;DHT22;8723;51.502;6.918;2023-10-31T04:03:19;11.20;99.90
17215;DHT22;8723;51.502;6.918;2023-10-31T04:05:49;11.20;99.90
17215;DHT22;8723;51.502;6.918;2023-10-31T04:08:18;11.20;99.90
17215;DHT22;8723;51.502;6.918;2023-10-31T04:10:48;11.20;99.90
17215;DHT22;8723;51.502;6.918;2023-10-31T04:13:17;11.10;99.90
17215;DHT22;8723;51.502;6.918;2023-10-31T04:15:44;11.20;99.90
17215;DHT22;8723;51.502;6.918;2023-10-31T04:18:12;11.20;99.90
17215;DHT22;8723;51.502;6.918;2023-10-31T04:20:39;11.20;99.90
17215;DHT22;8723;51.502;6.918;2023-10-31T04:23:07;11.10;99.90
17215;DHT22;8723;51.502;6.918;2023-10-31T04:25:34;11.10;99.90
17215;DHT22;8723;51.502;6.918;2023-10-31T04:28:00;11.20;99.90
17215;DHT22;8723;51.502;6.918;2023-10-31T04:30:28;11.10;99.90
17215;DHT22;8723;51.502;6.918;2023-10-31T04:32:54;11.10;99.90
17215;DHT22;8723;51.502;6.918;2023-10-31T04:35:22;11.20;99.90
17215;DHT22;8723;51.502;6.918;2023-10-31T04:37:49;11.10;99.90
17215;DHT22;8723;51.502;6.918;2023-10-31T04:40:16;11.10;99.90
17215;DHT22;8723;51.502;6.918;2023-10-31T04:42:45;11.20;99.90
17215;DHT22;8723;51.502;6.918;2023-10-31T04:45:12;11.10;99.90
17215;DHT22;8723;51.502;6.918;2023-10-31T04:47:40;11.10;99.90
17215;DHT22;8723;51.502;6.918;2023-10-31T04:50:07;11.20;99.90
17215;DHT22;8723;51.502;6.918;2023-10-31T04:52:35;11.10;99.90
17215;DHT22;8723;51.502;6.918;2023-10-31T04:55:02;11.20;99.90
17215;DHT22;8723;51.502;6.918;2023-10-31T04:57:29;11.10;99.90
17215;DHT22;8723;51.502;6.918;2023-10-31T04:59:56;11.10;99.90
17215;DHT22;8723;51.502;6.918;2023-10-31T05:02:24;11.10;99.90
17215;DHT22;8723;51.502;6.918;2023-10-31T05:04:51;11.20;99.90
17215;DHT22;8723;51.502;6.918;2023-10-31T05:07:18;11.20;99.90
17215;DHT22;8723;51.502;6.918;2023-10-31T05:09:46;11.20;99.90
17215;DHT22;8723;51.502;6.918;2023-10-31T05:12:13;11.10;99.90
17215;DHT22;8723;51.502;6.918;2023-10-31T05:14:40;11.10;99.90
17215;DHT22;8723;51.502;6.918;2023-10-31T05:17:07;11.20;99.90
17215;DHT22;8723;51.502;6.918;2023-10-31T05:19:33;11.10;99.90
17215;DHT22;8723;51.502;6.918;2023-10-31T05:22:00;11.20;99.90
17215;DHT22;8723;51.502;6.918;2023-10-31T05:24:27;11.20;99.90
17215;DHT22;8723;51.502;6.918;2023-10-31T05:26:56;11.10;99.90
17215;DHT22;8723;51.502;6.918;2023-10-31T05:29:23;11.10;99.90
17215;DHT22;8723;51.502;6.918;2023-10-31T05:31:49;11.10;99.90
17215;DHT22;8723;51.502;6.918;2023-10-31T05:34:16;11.20;99.90
17215;DHT22;8723;51.502;6.918;2023-10-31T05:36:43;11.20;99.90
17215;DHT22;8723;51.502;6.918;2023-10-31T05:39:10;11.20;99.90
17215;DHT22;8723;51.502;6.918;2023-10-31T05:41:37;11.20;99.90
17215;DHT22;8723;51.502;6.918;2023-10-31T05:44:05;11.20;99.90
17215;DHT22;8723;51.502;6.918;2023-10-31T05:46:32;11.10;99.90
17215;DHT22;8723;51.502;6.918;2023-10-31T05:49:03;11.20;99.90
17215;DHT22;8723;51.502;6.918;2023-10-31T05:51:30;11.20;99.90
17215;DHT22;8723;51.502;6.918;2023-10-31T05:53:57;11.20;99.90
17215;DHT22;8723;51.502;6.918;2023-10-31T05:56:24;11.10;99.90
17215;DHT22;8723;51.502;6.918;2023-10-31T05:58:50;11.20;99.90
17215;DHT22;8723;51.502;6.918;2023-10-31T06:01:18;11.20;99.90
17215;DHT22;8723;51.502;6.918;2023-10-31T06:03:45;11.20;99.90
17215;DHT22;8723;51.502;6.918;2023-10-31T06:06:12;11.30;99.90
17215;DHT22;8723;51.502;6.918;2023-10-31T06:08:39;11.30;99.90
17215;DHT22;8723;51.502;6.918;2023-10-31T06:11:07;11.30;99.90
17215;DHT22;8723;51.502;6.918;2023-10-31T06:13:33;11.30;99.90
17215;DHT22;8723;51.502;6.918;2023-10-31T06:16:01;11.30;99.90
17215;DHT22;8723;51.502;6.918;2023-10-31T06:18:29;11.20;99.90
17215;DHT22;8723;51.502;6.918;2023-10-31T06:20:55;11.20;99.90
17215;DHT22;8723;51.502;6.918;2023-10-31T06:23:23;11.20;99.90
17215;DHT22;8723;51.502;6.918;2023-10-31T06:25:49;11.30;99.90
17215;DHT22;8723;51.502;6.918;2023-10-31T06:28:16;11.30;99.90
17215;DHT22;8723;51.502;6.918;2023-10-31T06:30:43;11.30;99.90
17215;DHT22;8723;51.502;6.918;2023-10-31T06:33:10;11.30;99.90
17215;DHT22;8723;51.502;6.918;2023-10-31T06:35:38;11.30;99.90
17215;DHT22;8723;51.502;6.918;2023-10-31T06:38:05;11.30;99.90
17215;DHT22;8723;51.502;6.918;2023-10-31T06:40:32;11.30;99.90
17215;DHT22;8723;51.502;6.918;2023-10-31T06:42:59;11.30;99.90
17215;DHT22;8723;51.502;6.918;2023-10-31T06:45:25;11.30;99.90
17215;DHT22;8723;51.502;6.918;2023-10-31T06:47:52;11.30;99.90
17215;DHT22;8723;51.502;6.918;2023-10-31T06:50:19;11.30;99.90
17215;DHT22;8723;51.502;6.918;2023-10-31T06:52:47;11.30;99.90
17215;DHT22;8723;51.502;6.918;2023-10-31T06:55:14;11.40;99.90
17215;DHT22;8723;51.502;6.918;2023-10-31T06:57:41;11.30;99.90
17215;DHT22;8723;51.502;6.918;2023-10-31T07:00:10;11.40;99.90
17215;DHT22;8723;51.502;6.918;2023-10-31T07:02:37;11.40;99.90
17215;DHT22;8723;51.502;6.918;2023-10-31T07:05:04;11.40;99.90
17215;DHT22;8723;51.502;6.918;2023-10-31T07:07:31;11.40;99.90
17215;DHT22;8723;51.502;6.918;2023-10-31T07:09:59;11.30;99.90
17215;DHT22;8723;51.502;6.918;2023-10-31T07:12:26;11.30;99.90
17215;DHT22;8723;51.502;6.918;2023-10-31T07:14:53;11.30;99.90
17215;DHT22;8723;51.502;6.918;2023-10-31T07:17:20;11.30;99.90
17215;DHT22;8723;51.502;6.918;2023-10-31T07:19:47;11.40;99.90
17215;DHT22;8723;51.502;6.918;2023-10-31T07:22:14;11.30;99.90
17215;DHT22;8723;51.502;6.918;2023-10-31T07:24:40;11.40;99.90
17215;DHT22;8723;51.502;6.918;2023-10-31T07:27:09;11.40;99.90
17215;DHT22;8723;51.502;6.918;2023-10-31T07:29:39;11.40;99.90
17215;DHT22;8723;51.502;6.918;2023-10-31T07:32:06;11.50;99.90
17215;DHT22;8723;51.502;6.918;2023-10-31T07:34:33;11.50;99.90
17215;DHT22;8723;51.502;6.918;2023-10-31T07:37:00;11.50;99.90
17215;DHT22;8723;51.502;6.918;2023-10-31T07:39:27;11.40;99.90
17215;DHT22;8723;51.502;6.918;2023-10-31T07:41:53;11.50;99.90
17215;DHT22;8723;51.502;6.918;2023-10-31T07:44:21;11.50;99.90
17215;DHT22;8723;51.502;6.918;2023-10-31T07:46:48;11.50;99.90
17215;DHT22;8723;51.502;6.918;2023-10-31T07:49:15;11.50;99.90
17215;DHT22;8723;51.502;6.918;2023-10-31T07:51:42;11.50;99.90
17215;DHT22;8723;51.502;6.918;2023-10-31T07:54:09;11.50;99.90
17215;DHT22;8723;51.502;6.918;2023-10-31T07:56:35;11.50;99.90
17215;DHT22;8723;51.502;6.918;2023-10-31T07:59:03;11.60;99.90
17215;DHT22;8723;51.502;6.918;2023-10-31T08:01:31;11.60;99.90
17215;DHT22;8723;51.502;6.918;2023-10-31T08:03:58;11.50;99.90
17215;DHT22;8723;51.502;6.918;2023-10-31T08:06:25;11.50;99.90
17215;DHT22;8723;51.502;6.918;2023-10-31T08:08:52;11.50;99.90
17215;DHT22;8723;51.502;6.918;2023-10-31T08:11:19;11.60;99.90
17215;DHT22;8723;51.502;6.918;2023-10-31T08:13:45;11.60;99.90
17215;DHT22;8723;51.502;6.918;2023-10-31T08:16:17;11.60;99.90
17215;DHT22;8723;51.502;6.918;2023-10-31T08:18:46;11.60;99.90
17215;DHT22;8723;51.502;6.918;2023-10-31T08:21:13;11.60;99.90
17215;DHT22;8723;51.502;6.918;2023-10-31T08:23:39;11.50;99.90
17215;DHT22;8723;51.502;6.918;2023-10-31T08:26:07;11.50;99.90
17215;DHT22;8723;51.502;6.918;2023-10-31T08:28:34;11.60;99.90
17215;DHT22;8723;51.502;6.918;2023-10-31T08:31:00;11.60;99.90
17215;DHT22;8723;51.502;6.918;2023-10-31T08:33:29;11.60;99.90
17215;DHT22;8723;51.502;6.918;2023-10-31T08:35:57;11.60;99.90
17215;DHT22;8723;51.502;6.918;2023-10-31T08:38:24;11.70;99.90
17215;DHT22;8723;51.502;6.918;2023-10-31T08:40:51;11.80;99.90
17215;DHT22;8723;51.502;6.918;2023-10-31T08:43:17;11.90;99.90
17215;DHT22;8723;51.502;6.918;2023-10-31T08:45:44;11.90;99.90
17215;DHT22;8723;51.502;6.918;2023-10-31T08:48:11;11.90;99.90
17215;DHT22;8723;51.502;6.918;2023-10-31T08:50:38;11.90;99.90
17215;DHT22;8723;51.502;6.918;2023-10-31T08:53:06;11.90;99.90
17215;DHT22;8723;51.502;6.918;2023-10-31T08:55:33;11.90;99.90
17215;DHT22;8723;51.502;6.918;2023-10-31T08:57:59;11.90;99.90
17215;DHT22;8723;51.502;6.918;2023-10-31T09:00:26;11.90;99.90
17215;DHT22;8723;51.502;6.918;2023-10-31T09:02:54;11.90;99.90
17215;DHT22;8723;51.502;6.918;2023-10-31T09:05:21;11.80;99.90
17215;DHT22;8723;51.502;6.918;2023-10-31T09:07:48;11.70;99.90
17215;DHT22;8723;51.502;6.918;2023-10-31T09:10:16;11.80;99.90
17215;DHT22;8723;51.502;6.918;2023-10-31T09:12:43;11.80;99.90
17215;DHT22;8723;51.502;6.918;2023-10-31T09:15:11;11.80;99.90
17215;DHT22;8723;51.502;6.918;2023-10-31T09:17:38;11.90;99.90
17215;DHT22;8723;51.502;6.918;2023-10-31T09:20:06;11.90;99.90
17215;DHT22;8723;51.502;6.918;2023-10-31T09:22:33;12.00;99.90
17215;DHT22;8723;51.502;6.918;2023-10-31T09:25:00;12.00;99.90
17215;DHT22;8723;51.502;6.918;2023-10-31T09:27:29;12.00;99.90
17215;DHT22;8723;51.502;6.918;2023-10-31T09:29:56;12.10;99.90
17215;DHT22;8723;51.502;6.918;2023-10-31T09:32:22;12.20;99.90
17215;DHT22;8723;51.502;6.918;2023-10-31T09:34:49;12.20;99.90
17215;DHT22;8723;51.502;6.918;2023-10-31T09:37:16;12.30;99.90
17215;DHT22;8723;51.502;6.918;2023-10-31T09:39:43;12.30;99.90
17215;DHT22;8723;51.502;6.918;2023-10-31T09:42:10;12.30;99.90
17215;DHT22;8723;51.502;6.918;2023-10-31T09:44:38;12.30;99.90
17215;DHT22;8723;51.502;6.918;2023-10-31T09:47:06;12.30;99.90
17215;DHT22;8723;51.502;6.918;2023-10-31T09:49:34;12.30;99.90
17215;DHT22;8723;51.502;6.918;2023-10-31T09:52:01;12.20;99.90
17215;DHT22;8723;51.502;6.918;2023-10-31T09:54:29;12.30;99.90
17215;DHT22;8723;51.502;6.918;2023-10-31T09:56:56;12.30;99.90
17215;DHT22;8723;51.502;6.918;2023-10-31T09:59:23;12.30;99.90
17215;DHT22;8723;51.502;6.918;2023-10-31T10:01:51;12.20;99.90
17215;DHT22;8723;51.502;6.918;2023-10-31T10:04:18;12.20;99.90
17215;DHT22;8723;51.502;6.918;2023-10-31T10:06:52;12.20;99.90
17215;DHT22;8723;51.502;6.918;2023-10-31T10:09:18;12.20;99.90
17215;DHT22;8723;51.502;6.918;2023-10-31T10:11:45;12.30;99.90
17215;DHT22;8723;51.502;6.918;2023-10-31T10:14:12;12.20;99.90
17215;DHT22;8723;51.502;6.918;2023-10-31T10:16:39;12.20;99.90
17215;DHT22;8723;51.502;6.918;2023-10-31T10:19:17;12.20;99.90
17215;DHT22;8723;51.502;6.918;2023-10-31T10:21:49;12.10;99.90
17215;DHT22;8723;51.502;6.918;2023-10-31T10:24:16;12.10;99.90
17215;DHT22;8723;51.502;6.918;2023-10-31T10:26:43;12.10;99.90
17215;DHT22;8723;51.502;6.918;2023-10-31T10:29:10;12.10;99.90
17215;DHT22;8723;51.502;6.918;2023-10-31T10:31:37;12.10;99.90
17215;DHT22;8723;51.502;6.918;2023-10-31T10:34:05;12.20;99.90
17215;DHT22;8723;51.502;6.918;2023-10-31T10:36:34;12.20;99.90
17215;DHT22;8723;51.502;6.918;2023-10-31T10:39:01;12.30;99.90
17215;DHT22;8723;51.502;6.918;2023-10-31T10:41:29;12.30;99.90
17215;DHT22;8723;51.502;6.918;2023-10-31T10:44:05;12.30;99.90
17215;DHT22;8723;51.502;6.918;2023-10-31T10:46:34;12.30;99.90
17215;DHT22;8723;51.502;6.918;2023-10-31T10:49:04;12.30;99.90
17215;DHT22;8723;51.502;6.918;2023-10-31T10:51:43;12.30;99.90
17215;DHT22;8723;51.502;6.918;2023-10-31T10:54:19;12.20;99.90
17215;DHT22;8723;51.502;6.918;2023-10-31T10:56:53;12.30;99.90
17215;DHT22;8723;51.502;6.918;2023-10-31T10:59:25;12.30;99.90
17215;DHT22;8723;51.502;6.918;2023-10-31T11:01:58;12.40;99.90
17215;DHT22;8723;51.502;6.918;2023-10-31T11:04:26;12.50;99.90
17215;DHT22;8723;51.502;6.918;2023-10-31T11:06:54;12.70;99.90
17215;DHT22;8723;51.502;6.918;2023-10-31T11:09:23;12.80;99.90
17215;DHT22;8723;51.502;6.918;2023-10-31T11:11:50;12.90;99.90
17215;DHT22;8723;51.502;6.918;2023-10-31T11:14:19;13.00;99.90
17215;DHT22;8723;51.502;6.918;2023-10-31T11:16:48;13.10;99.90
17215;DHT22;8723;51.502;6.918;2023-10-31T11:19:17;13.00;99.90
17215;DHT22;8723;51.502;6.918;2023-10-31T11:21:55;13.00;99.90
17215;DHT22;8723;51.502;6.918;2023-10-31T11:24:26;13.10;99.90
17215;DHT22;8723;51.502;6.918;2023-10-31T11:26:58;13.10;99.90
17215;DHT22;8723;51.502;6.918;2023-10-31T11:29:25;13.10;99.90
17215;DHT22;8723;51.502;6.918;2023-10-31T11:31:54;13.10;99.90
17215;DHT22;8723;51.502;6.918;2023-10-31T11:34:21;13.10;99.90
17215;DHT22;8723;51.502;6.918;2023-10-31T11:36:48;13.10;99.90
17215;DHT22;8723;51.502;6.918;2023-10-31T11:39:19;13.20;99.90
17215;DHT22;8723;51.502;6.918;2023-10-31T11:41:49;13.20;99.90
17215;DHT22;8723;51.502;6.918;2023-10-31T11:44:16;13.30;99.90
17215;DHT22;8723;51.502;6.918;2023-10-31T11:46:43;13.40;99.90
17215;DHT22;8723;51.502;6.918;2023-10-31T11:49:14;13.50;99.90
17215;DHT22;8723;51.502;6.918;2023-10-31T11:51:41;13.50;99.90
17215;DHT22;8723;51.502;6.918;2023-10-31T11:54:12;13.50;99.90
17215;DHT22;8723;51.502;6.918;2023-10-31T11:56:41;13.50;99.90
17215;DHT22;8723;51.502;6.918;2023-10-31T11:59:07;13.50;99.90
17215;DHT22;8723;51.502;6.918;2023-10-31T12:01:44;13.50;99.90
17215;DHT22;8723;51.502;6.918;2023-10-31T12:04:21;13.50;99.90
17215;DHT22;8723;51.502;6.918;2023-10-31T12:06:57;13.50;99.90
17215;DHT22;8723;51.502;6.918;2023-10-31T12:09:23;13.60;99.90
17215;DHT22;8723;51.502;6.918;2023-10-31T12:11:52;13.50;94.10
17215;DHT22;8723;51.502;6.918;2023-10-31T12:14:19;13.50;54.90
17215;DHT22;8723;51.502;6.918;2023-10-31T12:16:46;13.40;71.90
17215;DHT22;8723;51.502;6.918;2023-10-31T12:19:13;13.40;80.30
17215;DHT22;8723;51.502;6.918;2023-10-31T12:21:42;13.40;87.00
17215;DHT22;8723;51.502;6.918;2023-10-31T12:24:10;13.40;89.60
17215;DHT22;8723;51.502;6.918;2023-10-31T12:26:38;13.40;53.90
17215;DHT22;8723;51.502;6.918;2023-10-31T12:29:13;13.40;48.20
17215;DHT22;8723;51.502;6.918;2023-10-31T12:31:45;13.50;57.20
17215;DHT22;8723;51.502;6.918;2023-10-31T12:34:13;13.40;67.70
17215;DHT22;8723;51.502;6.918;2023-10-31T12:36:40;13.50;80.20
17215;DHT22;8723;51.502;6.918;2023-10-31T12:39:08;13.50;77.40
17215;DHT22;8723;51.502;6.918;2023-10-31T12:41:37;13.50;81.20
17215;DHT22;8723;51.502;6.918;2023-10-31T12:44:04;13.50;22.20
17215;DHT22;8723;51.502;6.918;2023-10-31T12:46:33;13.40;25.60
17215;DHT22;8723;51.502;6.918;2023-10-31T12:49:00;13.30;13.90
17215;DHT22;8723;51.502;6.918;2023-10-31T12:51:27;13.30;26.00
17215;DHT22;8723;51.502;6.918;2023-10-31T12:53:54;13.30;28.80
17215;DHT22;8723;51.502;6.918;2023-10-31T12:56:40;13.30;18.70
17215;DHT22;8723;51.502;6.918;2023-10-31T12:59:08;13.40;20.70
17215;DHT22;8723;51.502;6.918;2023-10-31T13:01:36;13.50;27.40
17215;DHT22;8723;51.502;6.918;2023-10-31T13:04:04;13.50;13.50
17215;DHT22;8723;51.502;6.918;2023-10-31T13:06:30;13.60;16.80
17215;DHT22;8723;51.502;6.918;2023-10-31T13:08:58;13.70;8.80
17215;DHT22;8723;51.502;6.918;2023-10-31T13:11:29;13.70;5.20
17215;DHT22;8723;51.502;6.918;2023-10-31T13:13:56;13.70;3.10
17215;DHT22;8723;51.502;6.918;2023-10-31T13:16:23;13.70;1.00
17215;DHT22;8723;51.502;6.918;2023-10-31T13:18:53;13.70;1.00
17215;DHT22;8723;51.502;6.918;2023-10-31T13:21:20;13.70;3.80
17215;DHT22;8723;51.502;6.918;2023-10-31T13:23:47;13.70;1.00
17215;DHT22;8723;51.502;6.918;2023-10-31T13:26:14;13.70;1.00
17215;DHT22;8723;51.502;6.918;2023-10-31T13:28:40;13.80;1.00
17215;DHT22;8723;51.502;6.918;2023-10-31T13:31:07;13.70;1.00
17215;DHT22;8723;51.502;6.918;2023-10-31T13:33:36;13.80;3.20
17215;DHT22;8723;51.502;6.918;2023-10-31T13:36:05;13.80;1.00
17215;DHT22;8723;51.502;6.918;2023-10-31T13:38:32;13.70;2.60
17215;DHT22;8723;51.502;6.918;2023-10-31T13:41:01;13.70;3.70
17215;DHT22;8723;51.502;6.918;2023-10-31T13:43:28;13.80;3.60
17215;DHT22;8723;51.502;6.918;2023-10-31T13:45:54;13.70;1.00
17215;DHT22;8723;51.502;6.918;2023-10-31T13:48:21;13.80;1.00
17215;DHT22;8723;51.502;6.918;2023-10-31T13:50:48;13.70;1.00
17215;DHT22;8723;51.502;6.918;2023-10-31T13:53:16;13.70;1.00
17215;DHT22;8723;51.502;6.918;2023-10-31T13:55:43;13.80;1.00
17215;DHT22;8723;51.502;6.918;2023-10-31T13:58:10;13.80;1.00
17215;DHT22;8723;51.502;6.918;2023-10-31T14:00:37;13.70;1.00
17215;DHT22;8723;51.502;6.918;2023-10-31T14:03:04;13.60;1.00
17215;DHT22;8723;51.502;6.918;2023-10-31T14:05:31;13.60;1.00
17215;DHT22;8723;51.502;6.918;2023-10-31T14:07:58;13.60;1.00
17215;DHT22;8723;51.502;6.918;2023-10-31T14:10:26;13.50;1.00
17215;DHT22;8723;51.502;6.918;2023-10-31T14:12:53;13.50;1.00
17215;DHT22;8723;51.502;6.918;2023-10-31T14:15:21;13.50;1.00
17215;DHT22;8723;51.502;6.918;2023-10-31T14:17:48;13.40;1.00
17215;DHT22;8723;51.502;6.918;2023-10-31T14:20:15;13.40;1.00
17215;DHT22;8723;51.502;6.918;2023-10-31T14:22:47;13.50;1.00
17215;DHT22;8723;51.502;6.918;2023-10-31T14:25:14;13.40;1.00
17215;DHT22;8723;51.502;6.918;2023-10-31T14:27:42;13.30;1.00
17215;DHT22;8723;51.502;6.918;2023-10-31T14:30:10;13.30;1.00
17215;DHT22;8723;51.502;6.918;2023-10-31T14:32:37;13.30;1.00
17215;DHT22;8723;51.502;6.918;2023-10-31T14:35:05;13.20;1.00
17215;DHT22;8723;51.502;6.918;2023-10-31T14:37:32;13.20;1.00
17215;DHT22;8723;51.502;6.918;2023-10-31T14:40:00;13.10;1.00
17215;DHT22;8723;51.502;6.918;2023-10-31T14:42:28;13.10;1.00
17215;DHT22;8723;51.502;6.918;2023-10-31T14:44:56;13.10;1.00
17215;DHT22;8723;51.502;6.918;2023-10-31T14:47:23;13.00;1.00
17215;DHT22;8723;51.502;6.918;2023-10-31T14:49:49;13.00;1.00
17215;DHT22;8723;51.502;6.918;2023-10-31T14:52:16;13.00;1.00
17215;DHT22;8723;51.502;6.918;2023-10-31T14:54:43;12.90;1.00
17215;DHT22;8723;51.502;6.918;2023-10-31T14:57:10;12.90;1.00
17215;DHT22;8723;51.502;6.918;2023-10-31T14:59:36;12.90;4.50
17215;DHT22;8723;51.502;6.918;2023-10-31T15:02:05;12.80;10.40
17215;DHT22;8723;51.502;6.918;2023-10-31T15:04:31;12.70;13.00
17215;DHT22;8723;51.502;6.918;2023-10-31T15:06:58;12.70;9.10
17215;DHT22;8723;51.502;6.918;2023-10-31T15:09:25;12.70;13.20
17215;DHT22;8723;51.502;6.918;2023-10-31T15:11:52;12.70;19.50
17215;DHT22;8723;51.502;6.918;2023-10-31T15:14:18;12.60;36.40
17215;DHT22;8723;51.502;6.918;2023-10-31T15:16:45;12.60;29.20
17215;DHT22;8723;51.502;6.918;2023-10-31T15:19:13;12.50;39.80
17215;DHT22;8723;51.502;6.918;2023-10-31T15:21:40;12.50;47.80
17215;DHT22;8723;51.502;6.918;2023-10-31T15:24:07;12.40;52.40
17215;DHT22;8723;51.502;6.918;2023-10-31T15:26:36;12.40;61.20
17215;DHT22;8723;51.502;6.918;2023-10-31T15:29:04;12.40;76.40
17215;DHT22;8723;51.502;6.918;2023-10-31T15:31:31;12.30;72.70
17215;DHT22;8723;51.502;6.918;2023-10-31T15:33:58;12.30;88.00
17215;DHT22;8723;51.502;6.918;2023-10-31T15:36:27;12.30;97.90
17215;DHT22;8723;51.502;6.918;2023-10-31T15:38:54;12.30;99.90
17215;DHT22;8723;51.502;6.918;2023-10-31T15:41:21;12.20;99.90
17215;DHT22;8723;51.502;6.918;2023-10-31T15:43:48;12.20;99.90
17215;DHT22;8723;51.502;6.918;2023-10-31T15:46:15;12.20;99.90
17215;DHT22;8723;51.502;6.918;2023-10-31T15:48:42;12.20;99.90
17215;DHT22;8723;51.502;6.918;2023-10-31T15:51:09;12.20;99.90